createdAt,value
2023-01-20T06:41:14.723Z,40.17
2023-01-20T06:46:17.873Z,43.13
2023-01-20T06:51:21.553Z,63.17
2023-01-20T06:56:24.888Z,48.93
2023-01-20T07:01:30.623Z,37.85
2023-01-20T07:06:39.013Z,49.58
2023-01-20T07:11:41.944Z,41.97
2023-01-20T07:22:29.352Z,29.50
2023-01-20T07:27:32.264Z,51.88
2023-01-20T07:32:34.955Z,50.35
2023-01-20T07:37:37.591Z,44.27
2023-01-20T07:42:40.728Z,43.65
2023-01-20T07:47:43.429Z,40.43
2023-01-20T07:52:46.196Z,41.78
2023-01-20T07:57:48.921Z,42.55
2023-01-20T08:02:51.726Z,44.53
2023-01-20T08:07:54.457Z,49.55
2023-01-20T08:12:58.188Z,56.77
2023-01-20T08:18:01.054Z,44.30
2023-01-20T08:23:03.737Z,45.13
2023-01-20T08:28:06.981Z,51.30
2023-01-20T08:33:09.677Z,51.60
2023-01-20T08:38:12.388Z,44.70
2023-01-20T08:43:16.434Z,58.45
2023-01-20T08:48:20.241Z,50.30
2023-01-20T08:53:22.953Z,60.83
2023-01-20T08:58:26.263Z,42.53
2023-01-20T09:03:30.669Z,46.80
2023-01-20T09:08:36.124Z,40.90
2023-01-20T09:13:39.215Z,46.78
2023-01-20T09:18:42.361Z,50.10
2023-01-20T09:23:48.160Z,53.80
2023-01-20T09:28:51.089Z,39.23
2023-01-20T09:33:53.845Z,56.78
2023-01-20T09:39:14.945Z,55.80
2023-01-20T09:44:23.416Z,59.23
2023-01-20T09:49:58.384Z,52.20
2023-01-20T09:55:07.445Z,65.43
2023-01-20T10:00:19.226Z,54.70
2023-01-20T10:05:33.244Z,65.00
2023-01-20T10:10:43.407Z,37.10
2023-01-20T10:15:56.965Z,61.75
2023-01-20T10:21:13.970Z,56.47
2023-01-20T10:26:31.288Z,68.03
2023-01-20T10:31:43.599Z,56.78
2023-01-20T10:36:56.481Z,54.23
2023-01-20T10:42:13.149Z,27.52
2023-01-20T10:47:40.649Z,42.13
2023-01-20T10:53:06.981Z,53.47
2023-01-20T10:58:34.172Z,55.35
2023-01-20T11:03:41.166Z,41.97
2023-01-20T11:08:44.532Z,45.17
2023-01-20T11:13:47.659Z,44.87
2023-01-20T11:19:02.507Z,42.78
2023-01-20T11:24:30.904Z,50.05
2023-01-20T11:29:43.550Z,39.47
2023-01-20T11:34:50.435Z,47.80
2023-01-20T11:39:55.960Z,55.53
2023-01-20T11:45:20.738Z,63.65
2023-01-20T11:50:38.998Z,49.65
2023-01-20T11:56:06.518Z,56.27
2023-01-20T12:01:29.183Z,50.85
2023-01-20T12:06:36.911Z,54.40
2023-01-20T12:12:06.876Z,49.60
2023-01-20T12:17:12.554Z,39.28
2023-01-20T12:22:23.853Z,30.20
2023-01-20T12:27:28.521Z,25.95
2023-01-20T12:32:33.485Z,29.80
2023-01-20T12:37:49.400Z,29.70
2023-01-20T12:43:05.014Z,35.45
2023-01-20T12:48:37.070Z,30.90
2023-01-20T12:53:45.783Z,39.00
2023-01-20T12:59:15.191Z,22.63
2023-01-20T13:04:41.359Z,26.88
2023-01-20T13:09:53.078Z,24.92
2023-01-20T13:15:17.507Z,28.20
2023-01-20T13:20:26.456Z,24.90
2023-01-20T13:25:29.895Z,23.07
2023-01-20T13:30:44.553Z,29.67
2023-01-20T13:35:49.931Z,31.98
2023-01-20T13:40:55.425Z,18.60
2023-01-20T13:46:04.203Z,23.30
2023-01-20T13:51:16.067Z,32.40
2023-01-20T13:56:38.209Z,27.95
2023-01-20T14:01:40.976Z,26.60
2023-01-20T14:06:52.144Z,29.43
2023-01-20T14:11:57.477Z,24.65
2023-01-20T14:17:02.552Z,24.77
2023-01-20T14:22:17.870Z,34.92
2023-01-20T14:27:23.750Z,20.38
2023-01-20T14:32:29.327Z,32.70
2023-01-20T14:37:35.979Z,24.55
2023-01-20T14:42:40.154Z,21.03
2023-01-20T14:47:43.032Z,95.55
2023-01-20T14:52:49.075Z,40.13
2023-01-20T14:57:51.796Z,32.37
2023-01-20T15:03:10.375Z,32.17
2023-01-20T15:08:30.176Z,36.33
2023-01-20T15:13:32.985Z,34.95
2023-01-20T15:18:35.919Z,41.85
2023-01-20T15:23:39.639Z,27.83
2023-01-20T15:28:44.637Z,31.27
2023-01-20T15:33:47.706Z,17.27
2023-01-20T15:38:51.059Z,29.45
2023-01-20T15:43:56.548Z,26.48
2023-01-20T15:48:59.366Z,26.67
2023-01-20T15:54:02.206Z,21.50
2023-01-20T15:59:13.482Z,35.33
2023-01-20T16:04:16.258Z,23.67
2023-01-20T16:09:26.424Z,27.02
2023-01-20T16:14:29.211Z,23.23
2023-01-20T16:19:31.985Z,26.67
2023-01-20T16:24:35.395Z,19.07
2023-01-20T16:29:38.133Z,23.58
2023-01-20T16:34:40.978Z,23.23
2023-01-20T16:39:43.823Z,22.40
2023-01-20T16:44:46.627Z,15.10
2023-01-20T16:49:49.307Z,22.50
2023-01-20T16:54:52.008Z,11.63
2023-01-20T16:59:54.717Z,21.13
2023-01-20T17:04:57.606Z,23.40
2023-01-20T17:10:00.582Z,16.10
2023-01-20T17:15:03.474Z,22.97
2023-01-20T17:20:10.427Z,19.02
2023-01-20T17:25:16.182Z,31.63
2023-01-20T17:30:20.456Z,28.80
2023-01-20T17:35:23.308Z,25.50
2023-01-20T17:40:26.119Z,27.80
2023-01-20T17:45:31.004Z,29.98
2023-01-20T17:50:33.856Z,25.33
2023-01-20T17:55:36.754Z,21.23
2023-01-20T18:00:40.166Z,34.88
2023-01-20T18:05:42.926Z,30.57
2023-01-20T18:10:45.806Z,30.08
2023-01-20T18:15:48.518Z,30.08
2023-01-20T18:20:52.146Z,20.37
2023-01-20T18:25:56.775Z,24.30
2023-01-20T18:31:01.357Z,23.63
2023-01-20T18:36:04.665Z,21.83
2023-01-20T18:41:07.483Z,35.40
2023-01-20T18:46:10.724Z,32.20
2023-01-20T18:51:20.758Z,20.35
2023-01-20T18:56:27.006Z,17.03
2023-01-20T19:01:33.964Z,17.17
2023-01-20T19:06:40.115Z,15.50
2023-01-20T19:11:43.184Z,17.23
2023-01-20T19:16:49.530Z,12.23
2023-01-20T19:21:52.984Z,10.87
2023-01-20T19:26:58.281Z,13.25
2023-01-20T19:32:01.151Z,19.45
2023-01-20T19:37:04.091Z,12.00
2023-01-20T19:42:06.856Z,13.23
2023-01-20T19:47:09.712Z,14.17
2023-01-20T19:52:12.670Z,11.68
2023-01-20T19:57:15.504Z,13.55
2023-01-20T20:02:18.269Z,8.30
2023-01-20T20:07:21.295Z,12.88
2023-01-20T20:12:24.032Z,15.13
2023-01-20T20:17:27.260Z,12.85
2023-01-20T20:22:30.234Z,4.07
2023-01-20T20:27:33.283Z,14.13
2023-01-20T20:32:36.190Z,17.45
2023-01-20T20:37:39.187Z,11.87
2023-01-20T20:42:42.027Z,13.30
2023-01-20T20:47:44.792Z,15.95
2023-01-20T20:52:47.583Z,12.10
2023-01-20T20:57:50.352Z,17.48
2023-01-20T21:02:53.423Z,18.30
2023-01-20T21:07:56.281Z,16.98
2023-01-20T21:12:59.019Z,20.98
2023-01-20T21:18:01.904Z,17.67
2023-01-20T21:23:04.823Z,14.40
2023-01-20T21:28:07.606Z,19.57
2023-01-20T21:33:15.412Z,12.95
2023-01-20T21:38:18.293Z,11.55
2023-01-20T21:43:39.603Z,10.23
2023-01-20T21:49:01.397Z,12.27
2023-01-20T21:54:04.333Z,13.70
2023-01-20T21:59:07.990Z,12.48
2023-01-20T22:04:10.993Z,15.60
2023-01-20T22:09:13.960Z,12.30
2023-01-20T22:14:16.762Z,15.82
2023-01-20T22:19:19.564Z,10.77
2023-01-20T22:24:22.384Z,10.30
2023-01-20T22:29:25.239Z,10.15
2023-01-20T22:34:28.367Z,12.03
2023-01-20T22:39:31.107Z,11.10
2023-01-20T22:44:34.519Z,12.10
2023-01-20T22:49:37.316Z,11.18
2023-01-20T22:54:39.976Z,9.40
2023-01-20T22:59:42.879Z,9.53
2023-01-20T23:04:45.597Z,11.45
2023-01-20T23:09:48.320Z,9.67
2023-01-20T23:14:59.968Z,11.00
2023-01-20T23:20:02.725Z,13.15
2023-01-20T23:25:08.168Z,10.20
2023-01-20T23:30:14.618Z,10.52
2023-01-20T23:35:17.480Z,12.90
2023-01-20T23:40:20.453Z,14.82
2023-01-20T23:45:23.150Z,10.02
